sensor_id;sensor_type;location;lat;lon;timestamp;temperature;humidity
32728;DHT22;55292;51.844;19.246;2023-09-12T00:04:19;13.50;99.90
32728;DHT22;55292;51.844;19.246;2023-09-12T00:09:22;13.50;99.90
32728;DHT22;55292;51.844;19.246;2023-09-12T00:14:25;13.60;99.90
32728;DHT22;55292;51.844;19.246;2023-09-12T00:19:29;13.40;99.90
32728;DHT22;55292;51.844;19.246;2023-09-12T00:24:31;13.30;99.90
32728;DHT22;55292;51.844;19.246;2023-09-12T00:29:34;13.40;99.90
32728;DHT22;55292;51.844;19.246;2023-09-12T00:34:37;13.40;99.90
32728;DHT22;55292;51.844;19.246;2023-09-12T00:39:40;13.70;99.90
32728;DHT22;55292;51.844;19.246;2023-09-12T00:44:43;13.80;99.90
32728;DHT22;55292;51.844;19.246;2023-09-12T00:49:47;13.60;99.90
32728;DHT22;55292;51.844;19.246;2023-09-12T00:54:58;13.40;99.90
32728;DHT22;55292;51.844;19.246;2023-09-12T01:00:02;13.10;99.90
32728;DHT22;55292;51.844;19.246;2023-09-12T01:05:14;13.10;99.90
32728;DHT22;55292;51.844;19.246;2023-09-12T01:10:17;13.00;99.90
32728;DHT22;55292;51.844;19.246;2023-09-12T01:15:20;13.00;99.90
32728;DHT22;55292;51.844;19.246;2023-09-12T01:20:30;13.10;99.90
32728;DHT22;55292;51.844;19.246;2023-09-12T01:31:15;12.80;99.90
32728;DHT22;55292;51.844;19.246;2023-09-12T01:36:19;12.70;99.90
32728;DHT22;55292;51.844;19.246;2023-09-12T01:41:23;12.60;99.90
32728;DHT22;55292;51.844;19.246;2023-09-12T01:46:26;12.60;99.90
32728;DHT22;55292;51.844;19.246;2023-09-12T01:51:30;12.60;99.90
32728;DHT22;55292;51.844;19.246;2023-09-12T01:56:33;12.70;99.90
32728;DHT22;55292;51.844;19.246;2023-09-12T02:01:36;12.60;99.90
32728;DHT22;55292;51.844;19.246;2023-09-12T02:06:39;12.60;99.90
32728;DHT22;55292;51.844;19.246;2023-09-12T02:11:42;12.70;99.90
32728;DHT22;55292;51.844;19.246;2023-09-12T02:16:45;12.70;99.90
32728;DHT22;55292;51.844;19.246;2023-09-12T02:21:48;12.60;99.90
32728;DHT22;55292;51.844;19.246;2023-09-12T02:26:51;12.60;99.90
32728;DHT22;55292;51.844;19.246;2023-09-12T02:31:56;12.50;99.90
32728;DHT22;55292;51.844;19.246;2023-09-12T02:36:59;12.50;99.90
32728;DHT22;55292;51.844;19.246;2023-09-12T02:42:02;12.50;99.90
32728;DHT22;55292;51.844;19.246;2023-09-12T02:52:12;12.70;99.90
32728;DHT22;55292;51.844;19.246;2023-09-12T02:57:15;12.70;99.90
32728;DHT22;55292;51.844;19.246;2023-09-12T03:02:17;12.40;99.90
32728;DHT22;55292;51.844;19.246;2023-09-12T03:07:21;12.30;99.90
32728;DHT22;55292;51.844;19.246;2023-09-12T03:12:24;12.40;99.90
32728;DHT22;55292;51.844;19.246;2023-09-12T03:17:28;12.40;99.90
32728;DHT22;55292;51.844;19.246;2023-09-12T03:22:31;12.40;99.90
32728;DHT22;55292;51.844;19.246;2023-09-12T03:27:35;12.30;99.90
32728;DHT22;55292;51.844;19.246;2023-09-12T03:32:38;12.50;99.90
32728;DHT22;55292;51.844;19.246;2023-09-12T03:37:41;12.50;99.90
32728;DHT22;55292;51.844;19.246;2023-09-12T03:47:49;12.10;99.90
32728;DHT22;55292;51.844;19.246;2023-09-12T03:52:52;12.00;99.90
32728;DHT22;55292;51.844;19.246;2023-09-12T03:57:55;12.00;99.90
32728;DHT22;55292;51.844;19.246;2023-09-12T04:02:57;11.80;99.90
32728;DHT22;55292;51.844;19.246;2023-09-12T04:08:01;11.60;99.90
32728;DHT22;55292;51.844;19.246;2023-09-12T04:13:05;11.80;99.90
32728;DHT22;55292;51.844;19.246;2023-09-12T04:23:12;12.10;99.90
32728;DHT22;55292;51.844;19.246;2023-09-12T04:33:18;12.10;99.90
32728;DHT22;55292;51.844;19.246;2023-09-12T04:43:27;12.90;99.90
32728;DHT22;55292;51.844;19.246;2023-09-12T04:48:30;12.90;99.90
32728;DHT22;55292;51.844;19.246;2023-09-12T04:53:34;13.20;99.90
32728;DHT22;55292;51.844;19.246;2023-09-12T04:58:39;13.40;99.90
32728;DHT22;55292;51.844;19.246;2023-09-12T05:03:42;13.60;99.90
32728;DHT22;55292;51.844;19.246;2023-09-12T05:08:47;13.90;99.90
32728;DHT22;55292;51.844;19.246;2023-09-12T05:13:50;14.30;99.90
32728;DHT22;55292;51.844;19.246;2023-09-12T05:18:55;14.30;99.90
32728;DHT22;55292;51.844;19.246;2023-09-12T05:23:58;14.60;99.90
32728;DHT22;55292;51.844;19.246;2023-09-12T05:29:02;15.00;99.90
32728;DHT22;55292;51.844;19.246;2023-09-12T05:34:05;15.10;99.90
32728;DHT22;55292;51.844;19.246;2023-09-12T05:39:08;15.40;99.90
32728;DHT22;55292;51.844;19.246;2023-09-12T05:44:12;15.80;99.90
32728;DHT22;55292;51.844;19.246;2023-09-12T05:49:20;16.30;99.90
32728;DHT22;55292;51.844;19.246;2023-09-12T05:54:23;16.60;99.90
32728;DHT22;55292;51.844;19.246;2023-09-12T05:59:26;17.00;99.90
32728;DHT22;55292;51.844;19.246;2023-09-12T06:04:29;17.40;99.90
32728;DHT22;55292;51.844;19.246;2023-09-12T06:09:32;17.80;99.90
32728;DHT22;55292;51.844;19.246;2023-09-12T06:14:34;18.20;99.90
32728;DHT22;55292;51.844;19.246;2023-09-12T06:19:37;18.40;99.90
32728;DHT22;55292;51.844;19.246;2023-09-12T06:24:42;18.60;99.90
32728;DHT22;55292;51.844;19.246;2023-09-12T06:29:45;18.80;99.90
32728;DHT22;55292;51.844;19.246;2023-09-12T06:34:50;19.20;99.90
32728;DHT22;55292;51.844;19.246;2023-09-12T06:39:53;19.70;99.90
32728;DHT22;55292;51.844;19.246;2023-09-12T06:44:56;19.80;99.90
32728;DHT22;55292;51.844;19.246;2023-09-12T06:49:59;20.20;99.90
32728;DHT22;55292;51.844;19.246;2023-09-12T06:55:02;20.60;99.90
32728;DHT22;55292;51.844;19.246;2023-09-12T07:00:07;20.80;99.90
32728;DHT22;55292;51.844;19.246;2023-09-12T07:05:10;21.20;99.90
32728;DHT22;55292;51.844;19.246;2023-09-12T07:10:12;21.30;99.90
32728;DHT22;55292;51.844;19.246;2023-09-12T07:15:26;21.60;99.90
32728;DHT22;55292;51.844;19.246;2023-09-12T07:20:29;21.70;99.90
32728;DHT22;55292;51.844;19.246;2023-09-12T07:25:40;22.00;99.90
32728;DHT22;55292;51.844;19.246;2023-09-12T07:30:46;22.20;99.90
32728;DHT22;55292;51.844;19.246;2023-09-12T07:35:52;22.40;99.90
32728;DHT22;55292;51.844;19.246;2023-09-12T07:40:54;22.70;99.90
32728;DHT22;55292;51.844;19.246;2023-09-12T07:45:58;22.90;99.90
32728;DHT22;55292;51.844;19.246;2023-09-12T07:51:01;23.20;99.90
32728;DHT22;55292;51.844;19.246;2023-09-12T07:56:05;23.30;99.90
32728;DHT22;55292;51.844;19.246;2023-09-12T08:01:08;23.50;99.90
32728;DHT22;55292;51.844;19.246;2023-09-12T08:06:12;23.70;99.90
32728;DHT22;55292;51.844;19.246;2023-09-12T08:11:19;23.90;99.90
32728;DHT22;55292;51.844;19.246;2023-09-12T08:16:21;24.00;99.90
32728;DHT22;55292;51.844;19.246;2023-09-12T08:21:25;24.20;99.90
32728;DHT22;55292;51.844;19.246;2023-09-12T08:26:28;24.40;99.90
32728;DHT22;55292;51.844;19.246;2023-09-12T08:31:34;24.60;99.90
32728;DHT22;55292;51.844;19.246;2023-09-12T08:36:36;24.70;99.90
32728;DHT22;55292;51.844;19.246;2023-09-12T08:41:39;25.00;99.90
32728;DHT22;55292;51.844;19.246;2023-09-12T08:46:42;25.20;99.90
32728;DHT22;55292;51.844;19.246;2023-09-12T08:51:46;25.30;99.90
32728;DHT22;55292;51.844;19.246;2023-09-12T08:56:49;25.50;99.90
32728;DHT22;55292;51.844;19.246;2023-09-12T09:01:53;25.70;99.90
32728;DHT22;55292;51.844;19.246;2023-09-12T09:06:59;25.90;99.90
32728;DHT22;55292;51.844;19.246;2023-09-12T09:12:07;25.90;99.90
32728;DHT22;55292;51.844;19.246;2023-09-12T09:17:11;25.90;99.90
32728;DHT22;55292;51.844;19.246;2023-09-12T09:22:35;26.10;99.90
32728;DHT22;55292;51.844;19.246;2023-09-12T09:27:38;26.30;99.90
32728;DHT22;55292;51.844;19.246;2023-09-12T09:32:41;26.50;99.90
32728;DHT22;55292;51.844;19.246;2023-09-12T09:37:43;26.40;98.80
32728;DHT22;55292;51.844;19.246;2023-09-12T09:42:46;26.70;98.70
32728;DHT22;55292;51.844;19.246;2023-09-12T09:47:52;26.80;97.50
32728;DHT22;55292;51.844;19.246;2023-09-12T09:52:58;27.00;98.20
32728;DHT22;55292;51.844;19.246;2023-09-12T09:58:06;27.10;95.10
32728;DHT22;55292;51.844;19.246;2023-09-12T10:03:10;27.10;96.00
32728;DHT22;55292;51.844;19.246;2023-09-12T10:08:16;27.20;95.50
32728;DHT22;55292;51.844;19.246;2023-09-12T10:13:21;27.10;95.50
32728;DHT22;55292;51.844;19.246;2023-09-12T10:18:25;26.90;93.90
32728;DHT22;55292;51.844;19.246;2023-09-12T10:23:38;26.80;94.40
32728;DHT22;55292;51.844;19.246;2023-09-12T10:28:46;27.00;93.10
32728;DHT22;55292;51.844;19.246;2023-09-12T10:33:49;27.10;91.40
32728;DHT22;55292;51.844;19.246;2023-09-12T10:38:53;27.30;91.90
32728;DHT22;55292;51.844;19.246;2023-09-12T10:43:58;27.50;91.60
32728;DHT22;55292;51.844;19.246;2023-09-12T10:49:01;27.60;89.90
32728;DHT22;55292;51.844;19.246;2023-09-12T10:54:04;27.50;87.70
32728;DHT22;55292;51.844;19.246;2023-09-12T11:09:24;27.40;84.00
32728;DHT22;55292;51.844;19.246;2023-09-12T11:14:27;27.60;88.40
32728;DHT22;55292;51.844;19.246;2023-09-12T11:19:46;27.80;89.20
32728;DHT22;55292;51.844;19.246;2023-09-12T11:24:52;27.70;85.10
32728;DHT22;55292;51.844;19.246;2023-09-12T11:30:03;27.60;85.80
32728;DHT22;55292;51.844;19.246;2023-09-12T11:35:07;27.50;81.90
32728;DHT22;55292;51.844;19.246;2023-09-12T11:45:13;27.60;86.10
32728;DHT22;55292;51.844;19.246;2023-09-12T11:55:33;27.70;86.50
32728;DHT22;55292;51.844;19.246;2023-09-12T12:00:37;27.90;87.50
32728;DHT22;55292;51.844;19.246;2023-09-12T12:05:40;28.00;84.20
32728;DHT22;55292;51.844;19.246;2023-09-12T12:10:44;28.00;83.30
32728;DHT22;55292;51.844;19.246;2023-09-12T12:15:51;28.00;84.00
32728;DHT22;55292;51.844;19.246;2023-09-12T12:20:54;28.10;83.20
32728;DHT22;55292;51.844;19.246;2023-09-12T12:25:57;27.90;79.70
32728;DHT22;55292;51.844;19.246;2023-09-12T12:31:05;27.90;83.10
32728;DHT22;55292;51.844;19.246;2023-09-12T12:36:08;28.00;81.60
32728;DHT22;55292;51.844;19.246;2023-09-12T12:41:12;28.00;79.20
32728;DHT22;55292;51.844;19.246;2023-09-12T12:46:15;27.90;77.80
32728;DHT22;55292;51.844;19.246;2023-09-12T12:51:20;27.90;79.10
32728;DHT22;55292;51.844;19.246;2023-09-12T12:56:29;28.00;83.60
32728;DHT22;55292;51.844;19.246;2023-09-12T13:01:35;28.10;81.00
32728;DHT22;55292;51.844;19.246;2023-09-12T13:06:38;28.00;78.50
32728;DHT22;55292;51.844;19.246;2023-09-12T13:11:42;27.90;78.50
32728;DHT22;55292;51.844;19.246;2023-09-12T13:16:45;27.70;75.10
32728;DHT22;55292;51.844;19.246;2023-09-12T13:21:48;27.70;76.60
32728;DHT22;55292;51.844;19.246;2023-09-12T13:26:51;27.90;80.60
32728;DHT22;55292;51.844;19.246;2023-09-12T13:31:56;28.00;76.20
32728;DHT22;55292;51.844;19.246;2023-09-12T13:36:58;28.00;78.20
32728;DHT22;55292;51.844;19.246;2023-09-12T13:42:13;27.90;77.20
32728;DHT22;55292;51.844;19.246;2023-09-12T13:47:18;27.90;79.70
32728;DHT22;55292;51.844;19.246;2023-09-12T13:52:26;27.80;77.50
32728;DHT22;55292;51.844;19.246;2023-09-12T13:57:30;27.80;78.00
32728;DHT22;55292;51.844;19.246;2023-09-12T14:02:39;27.80;76.10
32728;DHT22;55292;51.844;19.246;2023-09-12T14:07:42;27.80;76.30
32728;DHT22;55292;51.844;19.246;2023-09-12T14:12:45;27.70;76.80
32728;DHT22;55292;51.844;19.246;2023-09-12T14:17:48;27.80;73.90
32728;DHT22;55292;51.844;19.246;2023-09-12T14:22:58;27.80;72.90
32728;DHT22;55292;51.844;19.246;2023-09-12T14:28:01;27.80;73.20
32728;DHT22;55292;51.844;19.246;2023-09-12T14:33:07;27.80;76.60
32728;DHT22;55292;51.844;19.246;2023-09-12T14:38:10;27.80;76.20
32728;DHT22;55292;51.844;19.246;2023-09-12T14:43:13;27.80;72.90
32728;DHT22;55292;51.844;19.246;2023-09-12T14:48:16;27.70;79.90
32728;DHT22;55292;51.844;19.246;2023-09-12T14:53:19;27.60;79.10
32728;DHT22;55292;51.844;19.246;2023-09-12T14:58:22;27.40;76.20
32728;DHT22;55292;51.844;19.246;2023-09-12T15:03:26;27.40;75.70
32728;DHT22;55292;51.844;19.246;2023-09-12T15:08:28;27.40;73.70
32728;DHT22;55292;51.844;19.246;2023-09-12T15:13:31;27.30;80.00
32728;DHT22;55292;51.844;19.246;2023-09-12T15:18:34;27.20;77.50
32728;DHT22;55292;51.844;19.246;2023-09-12T15:23:38;27.10;81.40
32728;DHT22;55292;51.844;19.246;2023-09-12T15:28:41;26.90;81.00
32728;DHT22;55292;51.844;19.246;2023-09-12T15:33:43;26.80;82.00
32728;DHT22;55292;51.844;19.246;2023-09-12T15:38:47;26.50;85.90
32728;DHT22;55292;51.844;19.246;2023-09-12T15:43:49;26.30;90.90
32728;DHT22;55292;51.844;19.246;2023-09-12T15:49:10;25.90;91.20
32728;DHT22;55292;51.844;19.246;2023-09-12T15:54:13;25.60;90.40
32728;DHT22;55292;51.844;19.246;2023-09-12T15:59:16;25.40;90.60
32728;DHT22;55292;51.844;19.246;2023-09-12T16:04:23;25.20;91.90
32728;DHT22;55292;51.844;19.246;2023-09-12T16:09:27;24.80;91.10
32728;DHT22;55292;51.844;19.246;2023-09-12T16:14:30;24.40;92.60
32728;DHT22;55292;51.844;19.246;2023-09-12T16:19:33;24.00;93.90
32728;DHT22;55292;51.844;19.246;2023-09-12T16:24:36;23.50;95.50
32728;DHT22;55292;51.844;19.246;2023-09-12T16:29:39;23.10;97.90
32728;DHT22;55292;51.844;19.246;2023-09-12T16:34:42;22.70;99.90
32728;DHT22;55292;51.844;19.246;2023-09-12T16:39:45;22.50;99.90
32728;DHT22;55292;51.844;19.246;2023-09-12T16:44:48;22.50;99.20
32728;DHT22;55292;51.844;19.246;2023-09-12T16:49:51;22.00;99.90
32728;DHT22;55292;51.844;19.246;2023-09-12T16:54:53;21.60;99.90
32728;DHT22;55292;51.844;19.246;2023-09-12T16:59:56;21.30;99.90
32728;DHT22;55292;51.844;19.246;2023-09-12T17:04:59;20.90;99.90
32728;DHT22;55292;51.844;19.246;2023-09-12T17:10:02;20.60;99.90
32728;DHT22;55292;51.844;19.246;2023-09-12T17:15:06;20.40;99.90
32728;DHT22;55292;51.844;19.246;2023-09-12T17:20:09;20.20;99.90
32728;DHT22;55292;51.844;19.246;2023-09-12T17:25:12;19.90;99.90
32728;DHT22;55292;51.844;19.246;2023-09-12T17:30:15;19.60;99.90
32728;DHT22;55292;51.844;19.246;2023-09-12T17:35:19;19.50;99.90
32728;DHT22;55292;51.844;19.246;2023-09-12T17:40:23;19.40;99.90
32728;DHT22;55292;51.844;19.246;2023-09-12T17:45:26;19.20;99.90
32728;DHT22;55292;51.844;19.246;2023-09-12T17:50:29;19.10;99.90
32728;DHT22;55292;51.844;19.246;2023-09-12T17:55:33;18.80;99.90
32728;DHT22;55292;51.844;19.246;2023-09-12T18:00:36;18.80;99.90
32728;DHT22;55292;51.844;19.246;2023-09-12T18:05:39;18.60;99.90
32728;DHT22;55292;51.844;19.246;2023-09-12T18:10:42;18.50;99.90
32728;DHT22;55292;51.844;19.246;2023-09-12T18:15:44;18.40;99.90
32728;DHT22;55292;51.844;19.246;2023-09-12T18:20:47;18.20;99.90
32728;DHT22;55292;51.844;19.246;2023-09-12T18:25:50;18.30;99.90
32728;DHT22;55292;51.844;19.246;2023-09-12T18:30:53;18.30;99.90
32728;DHT22;55292;51.844;19.246;2023-09-12T18:35:56;17.90;99.90
32728;DHT22;55292;51.844;19.246;2023-09-12T18:40:59;17.60;99.90
32728;DHT22;55292;51.844;19.246;2023-09-12T18:46:02;17.30;99.90
32728;DHT22;55292;51.844;19.246;2023-09-12T18:51:07;17.10;99.90
32728;DHT22;55292;51.844;19.246;2023-09-12T18:56:10;17.00;99.90
32728;DHT22;55292;51.844;19.246;2023-09-12T19:01:14;16.90;99.90
32728;DHT22;55292;51.844;19.246;2023-09-12T19:06:17;16.80;99.90
32728;DHT22;55292;51.844;19.246;2023-09-12T19:11:20;16.70;99.90
32728;DHT22;55292;51.844;19.246;2023-09-12T19:16:24;16.80;99.90
32728;DHT22;55292;51.844;19.246;2023-09-12T19:21:30;16.90;99.90
32728;DHT22;55292;51.844;19.246;2023-09-12T19:26:33;16.90;99.90
32728;DHT22;55292;51.844;19.246;2023-09-12T19:31:37;16.50;99.90
32728;DHT22;55292;51.844;19.246;2023-09-12T19:36:40;16.30;99.90
32728;DHT22;55292;51.844;19.246;2023-09-12T19:41:44;16.30;99.90
32728;DHT22;55292;51.844;19.246;2023-09-12T19:46:46;16.20;99.90
32728;DHT22;55292;51.844;19.246;2023-09-12T19:51:51;16.00;99.90
32728;DHT22;55292;51.844;19.246;2023-09-12T19:56:54;15.90;99.90
32728;DHT22;55292;51.844;19.246;2023-09-12T20:01:56;15.80;99.90
32728;DHT22;55292;51.844;19.246;2023-09-12T20:06:59;15.90;99.90
32728;DHT22;55292;51.844;19.246;2023-09-12T20:12:02;16.10;99.90
32728;DHT22;55292;51.844;19.246;2023-09-12T20:17:05;16.00;99.90
32728;DHT22;55292;51.844;19.246;2023-09-12T20:22:07;16.00;99.90
32728;DHT22;55292;51.844;19.246;2023-09-12T20:27:10;15.90;99.90
32728;DHT22;55292;51.844;19.246;2023-09-12T20:32:13;15.80;99.90
32728;DHT22;55292;51.844;19.246;2023-09-12T20:37:17;15.80;99.90
32728;DHT22;55292;51.844;19.246;2023-09-12T20:42:20;15.80;99.90
32728;DHT22;55292;51.844;19.246;2023-09-12T20:47:22;15.70;99.90
32728;DHT22;55292;51.844;19.246;2023-09-12T20:52:25;15.70;99.90
32728;DHT22;55292;51.844;19.246;2023-09-12T20:57:28;15.70;99.90
32728;DHT22;55292;51.844;19.246;2023-09-12T21:02:31;15.60;99.90
32728;DHT22;55292;51.844;19.246;2023-09-12T21:07:34;15.70;99.90
32728;DHT22;55292;51.844;19.246;2023-09-12T21:12:37;15.70;99.90
32728;DHT22;55292;51.844;19.246;2023-09-12T21:17:39;15.40;99.90
32728;DHT22;55292;51.844;19.246;2023-09-12T21:22:42;15.20;99.90
32728;DHT22;55292;51.844;19.246;2023-09-12T21:27:45;15.00;99.90
32728;DHT22;55292;51.844;19.246;2023-09-12T21:32:48;15.10;99.90
32728;DHT22;55292;51.844;19.246;2023-09-12T21:37:50;15.00;99.90
32728;DHT22;55292;51.844;19.246;2023-09-12T21:42:53;15.10;99.90
32728;DHT22;55292;51.844;19.246;2023-09-12T21:47:56;15.10;99.90
32728;DHT22;55292;51.844;19.246;2023-09-12T21:52:59;15.10;99.90
32728;DHT22;55292;51.844;19.246;2023-09-12T21:58:03;15.00;99.90
32728;DHT22;55292;51.844;19.246;2023-09-12T22:03:06;14.90;99.90
32728;DHT22;55292;51.844;19.246;2023-09-12T22:08:10;14.70;99.90
32728;DHT22;55292;51.844;19.246;2023-09-12T22:13:12;14.60;99.90
32728;DHT22;55292;51.844;19.246;2023-09-12T22:18:15;14.70;99.90
32728;DHT22;55292;51.844;19.246;2023-09-12T22:23:18;14.80;99.90
32728;DHT22;55292;51.844;19.246;2023-09-12T22:28:21;14.80;99.90
32728;DHT22;55292;51.844;19.246;2023-09-12T22:33:24;14.70;99.90
32728;DHT22;55292;51.844;19.246;2023-09-12T22:38:28;14.70;99.90
32728;DHT22;55292;51.844;19.246;2023-09-12T22:43:34;14.60;99.90
32728;DHT22;55292;51.844;19.246;2023-09-12T22:48:39;14.50;99.90
32728;DHT22;55292;51.844;19.246;2023-09-12T22:53:41;14.50;99.90
32728;DHT22;55292;51.844;19.246;2023-09-12T22:58:44;14.50;99.90
32728;DHT22;55292;51.844;19.246;2023-09-12T23:03:47;14.50;99.90
32728;DHT22;55292;51.844;19.246;2023-09-12T23:08:50;14.50;99.90
32728;DHT22;55292;51.844;19.246;2023-09-12T23:13:53;14.60;99.90
32728;DHT22;55292;51.844;19.246;2023-09-12T23:18:56;14.60;99.90
32728;DHT22;55292;51.844;19.246;2023-09-12T23:24:00;14.60;99.90
32728;DHT22;55292;51.844;19.246;2023-09-12T23:29:02;14.50;99.90
32728;DHT22;55292;51.844;19.246;2023-09-12T23:34:05;13.90;99.90
32728;DHT22;55292;51.844;19.246;2023-09-12T23:39:08;13.90;99.90
32728;DHT22;55292;51.844;19.246;2023-09-12T23:44:10;13.90;99.90
32728;DHT22;55292;51.844;19.246;2023-09-12T23:49:13;13.70;99.90
32728;DHT22;55292;51.844;19.246;2023-09-12T23:54:16;13.60;99.90
32728;DHT22;55292;51.844;19.246;2023-09-12T23:59:18;13.50;99.90
